createdAt,value
2023-11-16T00:00:34.306Z,100.00
2023-11-16T00:03:07.098Z,100.00
2023-11-16T00:05:36.869Z,100.00
2023-11-16T00:08:07.397Z,100.00
2023-11-16T00:10:36.791Z,100.00
2023-11-16T00:13:06.276Z,100.00
2023-11-16T00:15:36.905Z,100.00
2023-11-16T00:18:07.638Z,100.00
2023-11-16T00:20:37.519Z,100.00
2023-11-16T00:23:06.139Z,100.00
2023-11-16T00:25:34.602Z,100.00
2023-11-16T00:28:03.396Z,100.00
2023-11-16T00:30:31.799Z,100.00
2023-11-16T00:33:00.483Z,100.00
2023-11-16T00:35:30.561Z,100.00
2023-11-16T00:37:59.409Z,100.00
2023-11-16T00:40:33.474Z,100.00
2023-11-16T00:43:01.948Z,100.00
2023-11-16T00:45:30.585Z,100.00
2023-11-16T00:47:59.553Z,100.00
2023-11-16T00:50:27.958Z,100.00
2023-11-16T00:52:57.774Z,100.00
2023-11-16T00:55:26.202Z,100.00
2023-11-16T00:57:56.756Z,100.00
2023-11-16T01:00:27.725Z,100.00
2023-11-16T01:02:57.292Z,100.00
2023-11-16T01:05:26.159Z,100.00
2023-11-16T01:07:54.551Z,100.00
2023-11-16T01:10:25.844Z,100.00
2023-11-16T01:12:54.284Z,100.00
2023-11-16T01:15:24.358Z,100.00
2023-11-16T01:17:53.446Z,100.00
2023-11-16T01:20:24.697Z,100.00
2023-11-16T01:23:03.161Z,100.00
2023-11-16T01:25:34.168Z,100.00
2023-11-16T01:28:03.129Z,100.00
2023-11-16T01:30:33.012Z,100.00
2023-11-16T01:33:02.833Z,100.00
2023-11-16T01:35:31.450Z,100.00
2023-11-16T01:37:59.959Z,100.00
2023-11-16T01:40:28.656Z,100.00
2023-11-16T01:43:01.687Z,100.00
2023-11-16T01:45:32.104Z,100.00
2023-11-16T01:48:03.480Z,100.00
2023-11-16T01:50:34.007Z,100.00
2023-11-16T01:53:10.160Z,100.00
2023-11-16T01:55:42.017Z,100.00
2023-11-16T01:58:11.948Z,100.00
2023-11-16T02:00:43.857Z,100.00
2023-11-16T02:03:13.006Z,100.00
2023-11-16T02:05:42.150Z,100.00
2023-11-16T02:08:11.878Z,100.00
2023-11-16T02:10:42.419Z,100.00
2023-11-16T02:13:20.058Z,100.00
2023-11-16T02:15:50.129Z,100.00
2023-11-16T02:18:19.054Z,100.00
2023-11-16T02:20:47.857Z,100.00
2023-11-16T02:23:18.927Z,100.00
2023-11-16T02:25:48.544Z,100.00
2023-11-16T02:28:18.600Z,100.00
2023-11-16T02:30:47.741Z,100.00
2023-11-16T02:33:16.261Z,100.00
2023-11-16T02:35:44.756Z,100.00
2023-11-16T02:38:13.925Z,100.00
2023-11-16T02:40:43.998Z,100.00
2023-11-16T02:43:16.071Z,100.00
2023-11-16T02:45:44.649Z,100.00
2023-11-16T02:48:14.711Z,100.00
2023-11-16T02:50:44.167Z,100.00
2023-11-16T02:53:12.716Z,100.00
2023-11-16T02:55:41.127Z,100.00
2023-11-16T02:58:11.092Z,100.00
2023-11-16T03:00:39.649Z,100.00
2023-11-16T03:03:09.420Z,100.00
2023-11-16T03:05:38.109Z,100.00
2023-11-16T03:08:06.590Z,100.00
2023-11-16T03:10:36.115Z,100.00
2023-11-16T03:13:05.411Z,100.00
2023-11-16T03:15:35.950Z,100.00
2023-11-16T03:18:04.440Z,100.00
2023-11-16T03:20:32.934Z,100.00
2023-11-16T03:23:02.457Z,100.00
2023-11-16T03:25:35.211Z,100.00
2023-11-16T03:28:04.494Z,100.00
2023-11-16T03:30:34.415Z,100.00
2023-11-16T03:33:04.393Z,100.00
2023-11-16T03:35:33.082Z,100.00
2023-11-16T03:38:01.266Z,100.00
2023-11-16T03:40:31.686Z,100.00
2023-11-16T03:43:00.373Z,100.00
2023-11-16T03:45:28.801Z,100.00
2023-11-16T03:47:57.255Z,100.00
2023-11-16T03:50:27.074Z,100.00
2023-11-16T03:52:55.501Z,100.00
2023-11-16T03:55:23.784Z,100.00
2023-11-16T03:57:53.470Z,100.00
2023-11-16T04:00:23.194Z,100.00
2023-11-16T04:02:51.820Z,100.00
2023-11-16T04:05:20.727Z,100.00
2023-11-16T04:07:51.608Z,100.00
2023-11-16T04:10:20.739Z,100.00
2023-11-16T04:12:49.146Z,100.00
2023-11-16T04:15:18.935Z,100.00
2023-11-16T04:17:47.460Z,100.00
2023-11-16T04:20:16.567Z,100.00
2023-11-16T04:22:45.980Z,100.00
2023-11-16T04:25:24.392Z,100.00
2023-11-16T04:28:00.325Z,100.00
2023-11-16T04:30:32.332Z,100.00
2023-11-16T04:33:01.185Z,100.00
2023-11-16T04:35:29.926Z,100.00
2023-11-16T04:37:59.909Z,100.00
2023-11-16T04:40:29.996Z,100.00
2023-11-16T04:42:58.300Z,100.00
2023-11-16T04:45:28.004Z,100.00
2023-11-16T04:47:58.680Z,100.00
2023-11-16T04:50:32.916Z,100.00
2023-11-16T04:53:01.258Z,100.00
2023-11-16T04:55:30.884Z,100.00
2023-11-16T04:57:59.611Z,100.00
2023-11-16T05:00:31.680Z,100.00
2023-11-16T05:03:00.020Z,100.00
2023-11-16T05:05:28.928Z,100.00
2023-11-16T05:07:57.351Z,100.00
2023-11-16T05:10:25.655Z,100.00
2023-11-16T05:12:56.082Z,100.00
2023-11-16T05:15:24.368Z,100.00
2023-11-16T05:17:59.449Z,100.00
2023-11-16T05:20:30.172Z,100.00
2023-11-16T05:23:00.177Z,100.00
2023-11-16T05:25:29.200Z,100.00
2023-11-16T05:27:59.102Z,100.00
2023-11-16T05:30:27.945Z,100.00
2023-11-16T05:32:56.301Z,100.00
2023-11-16T05:35:25.435Z,100.00
2023-11-16T05:37:53.766Z,100.00
2023-11-16T05:40:27.675Z,100.00
2023-11-16T05:42:55.866Z,100.00
2023-11-16T05:45:25.463Z,100.00
2023-11-16T05:47:53.879Z,100.00
2023-11-16T05:50:25.345Z,100.00
2023-11-16T05:52:54.377Z,100.00
2023-11-16T05:55:22.932Z,100.00
2023-11-16T05:57:51.249Z,100.00
2023-11-16T06:00:21.402Z,100.00
2023-11-16T06:02:51.059Z,100.00
2023-11-16T06:05:19.586Z,100.00
2023-11-16T06:07:47.831Z,100.00
2023-11-16T06:10:18.693Z,100.00
2023-11-16T06:12:48.070Z,100.00
2023-11-16T06:15:17.562Z,100.00
2023-11-16T06:17:45.969Z,100.00
2023-11-16T06:20:16.486Z,100.00
2023-11-16T06:22:44.835Z,100.00
2023-11-16T06:25:13.358Z,100.00
2023-11-16T06:27:42.199Z,100.00
2023-11-16T06:30:14.068Z,100.00
2023-11-16T06:32:44.137Z,100.00
2023-11-16T06:35:12.625Z,100.00
2023-11-16T06:37:42.378Z,100.00
2023-11-16T06:40:11.490Z,100.00
2023-11-16T06:42:41.221Z,100.00
2023-11-16T06:45:13.080Z,100.00
2023-11-16T06:47:41.909Z,100.00
2023-11-16T06:50:14.537Z,100.00
2023-11-16T06:52:44.718Z,100.00
2023-11-16T06:55:15.338Z,100.00
2023-11-16T06:57:44.022Z,100.00
2023-11-16T07:00:17.372Z,100.00
2023-11-16T07:02:47.291Z,100.00
2023-11-16T07:05:19.210Z,100.00
2023-11-16T07:07:48.931Z,100.00
2023-11-16T07:10:35.647Z,100.00
2023-11-16T07:13:04.705Z,100.00
2023-11-16T07:15:34.106Z,100.00
2023-11-16T07:18:06.479Z,100.00
2023-11-16T07:20:36.569Z,100.00
2023-11-16T07:23:06.432Z,100.00
2023-11-16T07:25:36.068Z,100.00
2023-11-16T07:28:05.779Z,100.00
2023-11-16T07:30:36.846Z,100.00
2023-11-16T07:33:06.879Z,100.00
2023-11-16T07:35:35.857Z,100.00
2023-11-16T07:38:04.957Z,100.00
2023-11-16T07:40:34.700Z,100.00
2023-11-16T07:43:03.113Z,100.00
2023-11-16T07:45:32.870Z,100.00
2023-11-16T07:48:05.347Z,100.00
2023-11-16T07:50:34.159Z,100.00
2023-11-16T07:53:02.688Z,100.00
2023-11-16T07:55:31.529Z,100.00
2023-11-16T07:58:01.534Z,100.00
2023-11-16T08:00:32.581Z,100.00
2023-11-16T08:03:21.801Z,100.00
2023-11-16T08:05:50.391Z,100.00
2023-11-16T08:08:20.620Z,100.00
2023-11-16T08:10:53.452Z,100.00
2023-11-16T08:13:29.167Z,100.00
2023-11-16T08:16:00.619Z,100.00
2023-11-16T08:18:29.566Z,100.00
2023-11-16T08:20:58.044Z,100.00
2023-11-16T08:26:00.822Z,100.00
2023-11-16T08:28:30.833Z,100.00
2023-11-16T08:30:59.963Z,100.00
2023-11-16T08:33:28.771Z,100.00
2023-11-16T08:36:06.450Z,100.00
2023-11-16T08:38:39.674Z,100.00
2023-11-16T08:41:08.417Z,100.00
2023-11-16T08:43:38.777Z,100.00
2023-11-16T08:46:09.128Z,100.00
2023-11-16T08:48:37.757Z,100.00
2023-11-16T08:51:08.252Z,100.00
2023-11-16T08:53:40.785Z,100.00
2023-11-16T08:56:10.395Z,100.00
2023-11-16T08:58:48.718Z,100.00
2023-11-16T09:01:18.830Z,100.00
2023-11-16T09:03:50.851Z,100.00
2023-11-16T09:06:27.070Z,100.00
2023-11-16T09:08:57.778Z,100.00
2023-11-16T09:11:28.483Z,100.00
2023-11-16T09:13:58.355Z,100.00
2023-11-16T09:16:26.682Z,100.00
2023-11-16T09:18:56.191Z,100.00
2023-11-16T09:21:27.997Z,100.00
2023-11-16T09:23:57.019Z,100.00
2023-11-16T09:26:28.727Z,100.00
2023-11-16T09:29:05.425Z,94.48
2023-11-16T09:31:36.557Z,100.00
2023-11-16T09:34:05.170Z,100.00
2023-11-16T09:36:35.027Z,100.00
2023-11-16T09:39:04.850Z,100.00
2023-11-16T09:41:34.722Z,100.00
2023-11-16T09:44:07.819Z,100.00
2023-11-16T09:46:38.490Z,100.00
2023-11-16T09:49:10.554Z,100.00
2023-11-16T09:51:40.489Z,100.00
2023-11-16T09:54:10.799Z,100.00
2023-11-16T09:56:47.464Z,100.00
2023-11-16T09:59:28.966Z,100.00
2023-11-16T10:02:10.914Z,100.00
2023-11-16T10:04:43.241Z,100.00
2023-11-16T10:07:13.538Z,100.00
2023-11-16T10:09:43.059Z,100.00
2023-11-16T10:12:12.706Z,100.00
2023-11-16T10:14:52.483Z,100.00
2023-11-16T10:17:26.095Z,100.00
2023-11-16T10:19:54.496Z,100.00
2023-11-16T10:22:22.886Z,89.46
2023-11-16T10:24:52.682Z,68.52
2023-11-16T10:27:21.137Z,56.74
2023-11-16T10:29:52.634Z,48.62
2023-11-16T10:32:21.197Z,44.84
2023-11-16T10:34:50.982Z,46.09
2023-11-16T10:37:19.920Z,46.02
2023-11-16T10:39:51.061Z,45.08
2023-11-16T10:42:20.948Z,43.97
2023-11-16T10:44:53.421Z,43.98
2023-11-16T10:47:22.076Z,43.06
2023-11-16T10:49:52.505Z,44.49
2023-11-16T10:52:24.116Z,41.57
2023-11-16T10:54:59.320Z,44.88
2023-11-16T10:57:34.364Z,46.60
2023-11-16T11:00:11.928Z,43.81
2023-11-16T11:02:42.818Z,43.09
2023-11-16T11:05:11.999Z,45.74
2023-11-16T11:07:48.868Z,56.21
2023-11-16T11:10:19.132Z,64.38
2023-11-16T11:12:48.414Z,79.23
2023-11-16T11:15:32.875Z,86.37
2023-11-16T11:18:01.915Z,69.41
2023-11-16T11:20:37.421Z,84.48
2023-11-16T11:23:10.395Z,96.13
2023-11-16T11:25:39.281Z,100.00
2023-11-16T11:28:12.498Z,100.00
2023-11-16T11:30:52.035Z,100.00
2023-11-16T11:33:29.763Z,100.00
2023-11-16T11:35:58.615Z,100.00
2023-11-16T11:38:31.177Z,100.00
2023-11-16T11:41:03.525Z,100.00
2023-11-16T11:43:32.986Z,100.00
2023-11-16T11:46:03.100Z,98.69
2023-11-16T11:48:31.490Z,100.00
2023-11-16T11:51:02.377Z,91.81
2023-11-16T11:53:34.029Z,93.34
2023-11-16T11:56:03.588Z,98.85
2023-11-16T11:58:31.826Z,100.00
2023-11-16T12:01:00.574Z,100.00
2023-11-16T12:03:30.960Z,100.00
2023-11-16T12:06:01.542Z,100.00
2023-11-16T12:08:42.421Z,100.00
2023-11-16T12:11:12.457Z,100.00
2023-11-16T12:13:42.082Z,100.00
2023-11-16T12:16:16.727Z,100.00
2023-11-16T12:18:52.985Z,100.00
2023-11-16T12:21:21.704Z,100.00
2023-11-16T12:23:52.601Z,100.00
2023-11-16T12:26:25.444Z,100.00
2023-11-16T12:28:54.283Z,100.00
2023-11-16T12:31:27.962Z,100.00
2023-11-16T12:33:58.442Z,100.00
2023-11-16T12:36:33.040Z,100.00
2023-11-16T12:39:01.838Z,100.00
2023-11-16T12:41:30.362Z,100.00
2023-11-16T12:44:01.299Z,100.00
2023-11-16T12:46:37.011Z,100.00
2023-11-16T12:49:07.157Z,100.00
2023-11-16T12:51:35.733Z,100.00
2023-11-16T12:54:04.584Z,100.00
2023-11-16T12:56:33.996Z,100.00
2023-11-16T12:59:03.818Z,100.00
2023-11-16T13:01:32.296Z,100.00
2023-11-16T13:04:00.992Z,100.00
2023-11-16T13:06:30.847Z,100.00
2023-11-16T13:08:59.299Z,100.00
2023-11-16T13:11:27.733Z,100.00
2023-11-16T13:13:56.105Z,100.00
2023-11-16T13:16:25.134Z,100.00
2023-11-16T13:18:54.433Z,100.00
2023-11-16T13:21:22.883Z,100.00
2023-11-16T13:23:54.139Z,100.00
2023-11-16T13:26:23.664Z,100.00
2023-11-16T13:28:55.750Z,100.00
2023-11-16T13:31:24.261Z,100.00
2023-11-16T13:33:54.048Z,100.00
2023-11-16T13:36:22.510Z,100.00
2023-11-16T13:38:55.262Z,100.00
2023-11-16T13:41:24.334Z,100.00
2023-11-16T13:43:52.816Z,100.00
2023-11-16T13:46:21.887Z,100.00
2023-11-16T13:48:50.698Z,100.00
2023-11-16T13:51:19.036Z,100.00
2023-11-16T13:53:47.405Z,100.00
2023-11-16T13:56:18.062Z,100.00
2023-11-16T13:58:47.219Z,100.00
2023-11-16T14:01:18.259Z,100.00
2023-11-16T14:03:48.581Z,100.00
2023-11-16T14:06:19.109Z,100.00
2023-11-16T14:08:47.780Z,100.00
2023-11-16T14:11:20.230Z,100.00
2023-11-16T14:13:48.615Z,100.00
2023-11-16T14:16:16.984Z,100.00
2023-11-16T14:18:45.441Z,100.00
2023-11-16T14:21:14.486Z,100.00
2023-11-16T14:23:45.687Z,100.00
2023-11-16T14:26:14.670Z,100.00
2023-11-16T14:28:46.594Z,100.00
2023-11-16T14:31:16.011Z,100.00
2023-11-16T14:33:44.452Z,100.00
2023-11-16T14:36:12.872Z,100.00
2023-11-16T14:38:41.203Z,100.00
2023-11-16T14:41:09.451Z,100.00
2023-11-16T14:43:38.038Z,100.00
2023-11-16T14:46:08.425Z,100.00
2023-11-16T14:48:39.535Z,100.00
2023-11-16T14:51:13.371Z,100.00
2023-11-16T14:53:51.000Z,100.00
2023-11-16T14:56:23.211Z,100.00
2023-11-16T14:58:51.852Z,100.00
2023-11-16T15:01:22.326Z,100.00
2023-11-16T15:03:51.264Z,100.00
2023-11-16T15:06:19.723Z,100.00
2023-11-16T15:08:48.308Z,100.00
2023-11-16T15:11:16.665Z,100.00
2023-11-16T15:13:55.240Z,100.00
2023-11-16T15:16:42.674Z,100.00
2023-11-16T15:19:11.678Z,100.00
2023-11-16T15:21:41.179Z,100.00
2023-11-16T15:24:10.528Z,100.00
2023-11-16T15:26:48.157Z,100.00
2023-11-16T15:29:19.438Z,100.00
2023-11-16T15:31:49.291Z,100.00
2023-11-16T15:34:17.706Z,100.00
2023-11-16T15:36:46.272Z,100.00
2023-11-16T15:39:44.353Z,100.00
2023-11-16T15:42:19.932Z,100.00
2023-11-16T15:44:48.267Z,100.00
2023-11-16T15:47:17.964Z,100.00
2023-11-16T15:49:46.310Z,100.00
2023-11-16T15:52:15.264Z,100.00
2023-11-16T15:54:47.466Z,100.00
2023-11-16T15:57:15.863Z,100.00
2023-11-16T15:59:45.562Z,100.00
2023-11-16T16:02:15.186Z,100.00
2023-11-16T16:04:48.488Z,100.00
2023-11-16T16:07:17.253Z,100.00
2023-11-16T16:09:50.108Z,100.00
2023-11-16T16:12:18.481Z,100.00
2023-11-16T16:14:46.981Z,100.00
2023-11-16T16:17:16.359Z,100.00
2023-11-16T16:19:46.123Z,100.00
2023-11-16T16:22:16.212Z,100.00
2023-11-16T16:24:44.726Z,100.00
2023-11-16T16:27:13.517Z,100.00
2023-11-16T16:29:41.907Z,100.00
2023-11-16T16:32:11.544Z,100.00
2023-11-16T16:34:40.345Z,100.00
2023-11-16T16:37:10.185Z,100.00
2023-11-16T16:39:40.617Z,100.00
2023-11-16T16:42:09.431Z,100.00
2023-11-16T16:44:38.148Z,100.00
2023-11-16T16:47:07.764Z,100.00
2023-11-16T16:49:36.238Z,100.00
2023-11-16T16:52:04.870Z,100.00
2023-11-16T16:54:35.118Z,100.00
2023-11-16T16:57:04.842Z,100.00
2023-11-16T16:59:35.586Z,100.00
2023-11-16T19:42:38.198Z,100.00
2023-11-16T19:45:07.984Z,100.00
2023-11-16T19:47:36.581Z,100.00
2023-11-16T19:50:08.345Z,100.00
2023-11-16T19:52:37.229Z,100.00
2023-11-16T19:55:06.280Z,100.00
2023-11-16T19:57:40.569Z,100.00
2023-11-16T20:00:10.492Z,100.00
2023-11-16T20:02:38.799Z,100.00
2023-11-16T20:05:08.218Z,100.00
2023-11-16T20:07:36.364Z,100.00
2023-11-16T20:10:07.590Z,100.00
2023-11-16T20:12:37.856Z,100.00
2023-11-16T20:15:09.518Z,100.00
2023-11-16T20:17:41.009Z,100.00
2023-11-16T20:20:15.210Z,100.00
2023-11-16T20:22:44.924Z,100.00
2023-11-16T20:25:15.324Z,100.00
2023-11-16T20:27:45.646Z,100.00
2023-11-16T20:30:14.554Z,100.00
2023-11-16T20:32:43.913Z,100.00
2023-11-16T20:35:16.648Z,100.00
2023-11-16T20:37:45.049Z,100.00
2023-11-16T20:40:15.177Z,100.00
2023-11-16T20:42:45.911Z,100.00
2023-11-16T20:45:16.933Z,100.00
2023-11-16T20:47:47.899Z,100.00
2023-11-16T20:50:17.384Z,100.00
2023-11-16T20:52:46.207Z,100.00
2023-11-16T20:55:15.702Z,100.00
2023-11-16T20:57:45.868Z,100.00
2023-11-16T21:00:19.631Z,100.00
2023-11-16T21:02:49.500Z,100.00
2023-11-16T21:05:19.188Z,100.00
2023-11-16T21:07:49.645Z,100.00
2023-11-16T21:10:18.476Z,100.00
2023-11-16T21:12:49.941Z,100.00
2023-11-16T21:15:20.629Z,100.00
2023-11-16T21:17:49.230Z,100.00
2023-11-16T21:20:18.030Z,100.00
2023-11-16T21:22:46.426Z,100.00
2023-11-16T21:25:14.977Z,100.00
2023-11-16T21:27:43.809Z,100.00
2023-11-16T21:30:17.171Z,100.00
2023-11-16T21:32:45.784Z,100.00
2023-11-16T21:35:16.062Z,100.00
2023-11-16T21:37:45.247Z,100.00
2023-11-16T21:40:15.278Z,100.00
2023-11-16T21:42:45.554Z,100.00
2023-11-16T21:45:16.242Z,100.00
2023-11-16T21:47:47.979Z,100.00
2023-11-16T21:50:18.742Z,100.00
2023-11-16T21:52:50.674Z,100.00
2023-11-16T21:55:20.033Z,100.00
2023-11-16T21:57:48.474Z,100.00
2023-11-16T22:00:19.140Z,100.00
2023-11-16T22:02:47.799Z,100.00
2023-11-16T22:05:16.793Z,100.00
2023-11-16T22:07:46.223Z,100.00
2023-11-16T22:10:18.341Z,100.00
2023-11-16T22:12:49.531Z,100.00
2023-11-16T22:15:20.600Z,100.00
2023-11-16T22:17:50.982Z,100.00
2023-11-16T22:20:20.678Z,100.00
2023-11-16T22:22:50.024Z,100.00
2023-11-16T22:25:18.980Z,100.00
2023-11-16T22:27:49.297Z,100.00
2023-11-16T22:30:20.919Z,100.00
2023-11-16T22:32:50.174Z,100.00
2023-11-16T22:35:19.895Z,100.00
2023-11-16T22:37:49.676Z,100.00
2023-11-16T22:40:24.451Z,100.00
2023-11-16T22:45:14.012Z,100.00
2023-11-16T22:47:44.852Z,100.00
2023-11-16T22:50:15.615Z,100.00
2023-11-16T22:52:44.270Z,100.00
2023-11-16T22:55:13.749Z,100.00
2023-11-16T22:57:43.902Z,100.00
2023-11-16T23:00:22.177Z,100.00
2023-11-16T23:02:53.257Z,100.00
2023-11-16T23:05:23.420Z,100.00
2023-11-16T23:07:52.835Z,100.00
2023-11-16T23:10:22.636Z,100.00
2023-11-16T23:12:52.953Z,100.00
2023-11-16T23:15:25.862Z,100.00
2023-11-16T23:17:55.303Z,100.00
2023-11-16T23:20:28.148Z,100.00
2023-11-16T23:22:57.127Z,100.00
2023-11-16T23:25:25.843Z,100.00
2023-11-16T23:27:54.648Z,100.00
2023-11-16T23:30:24.649Z,100.00
2023-11-16T23:32:53.655Z,100.00
2023-11-16T23:35:23.123Z,100.00
2023-11-16T23:37:52.293Z,100.00
2023-11-16T23:40:21.457Z,100.00
2023-11-16T23:42:51.439Z,100.00
2023-11-16T23:45:20.232Z,100.00
2023-11-16T23:47:50.329Z,100.00
2023-11-16T23:50:18.836Z,100.00
2023-11-16T23:52:47.453Z,100.00
2023-11-16T23:55:15.955Z,100.00
2023-11-16T23:57:44.717Z,100.00
